This is the latest recevied weather packets stored in our database for station/object W4CAT-13. If no packets are shown the sender has not sent any weather packets the latest 10 day(s).
| Time | Temp. | Humidity | Pressure | Rain* | Wind** | Luminosity | Snow |
|---|---|---|---|---|---|---|---|
| 1777903985 | 15.56° C | 65% | 977 hPa | 0 mm | - | - | - |
| 1777903054 | 14.44° C | 67% | 977.3 hPa | 0 mm | - | - | - |
| 1777902125 | 13.89° C | 70% | 977.3 hPa | 0 mm | - | - | - |
| 1777901194 | 12.78° C | 71% | 977.6 hPa | 0 mm | - | - | - |
| 1777900265 | 12.22° C | 72% | 977.3 hPa | 0 mm | - | - | - |
| 1777899334 | 11.67° C | 73% | 977.6 hPa | 0 mm | - | - | - |
| 1777898404 | 11.11° C | 74% | 977.5 hPa | 0 mm | - | - | - |
| 1777897474 | 10.56° C | 74% | 977.6 hPa | 0 mm | - | - | - |
| 1777896545 | 10.56° C | 74% | 977.3 hPa | 0 mm | - | - | - |
| 1777895614 | 10.56° C | 74% | 977.3 hPa | 0 mm | - | - | - |
| 1777894684 | 10° C | 74% | 977.3 hPa | 0 mm | - | - | - |
| 1777893754 | 10° C | 74% | 977 hPa | 0 mm | - | - | - |
| 1777892824 | 10° C | 74% | 977 hPa | 0 mm | - | - | - |
| 1777891894 | 10° C | 74% | 977 hPa | 0 mm | - | - | - |
| 1777890964 | 10° C | 73% | 977 hPa | 0 mm | - | - | - |
| 1777890034 | 10° C | 73% | 977 hPa | 0 mm | - | - | - |
| 1777889104 | 10° C | 73% | 976.6 hPa | 0 mm | - | - | - |
| 1777888174 | 10° C | 73% | 976.6 hPa | 0 mm | - | - | - |
| 1777887244 | 10° C | 73% | 976.6 hPa | 0 mm | - | - | - |
| 1777886314 | 10° C | 72% | 977 hPa | 0 mm | - | - | - |
| 1777885384 | 10° C | 72% | 977 hPa | 0 mm | - | - | - |
| 1777884454 | 10° C | 72% | 976.6 hPa | 0 mm | - | - | - |
| 1777883524 | 10.56° C | 72% | 977 hPa | 0 mm | - | - | - |
| 1777882594 | 11.11° C | 69% | 977 hPa | 0 mm | - | - | - |
| 1777881664 | 11.11° C | 69% | 977 hPa | 0 mm | - | - | - |
* Rain latest hour (hover to see other rain measurements)
** Current wind speed in m/s (hover to see current wind gust speed)